sensor_id;sensor_type;location;lat;lon;timestamp;temperature;humidity
13488;DHT22;6816;48.506;9.050;2023-05-10T00:02:58;16.60;99.90
13488;DHT22;6816;48.506;9.050;2023-05-10T00:05:58;16.60;99.90
13488;DHT22;6816;48.506;9.050;2023-05-10T00:08:59;16.60;99.90
13488;DHT22;6816;48.506;9.050;2023-05-10T00:11:59;16.60;99.90
13488;DHT22;6816;48.506;9.050;2023-05-10T00:15:00;16.60;99.90
13488;DHT22;6816;48.506;9.050;2023-05-10T00:18:01;16.50;99.90
13488;DHT22;6816;48.506;9.050;2023-05-10T00:21:01;16.50;99.90
13488;DHT22;6816;48.506;9.050;2023-05-10T00:24:02;16.50;99.90
13488;DHT22;6816;48.506;9.050;2023-05-10T00:27:03;16.50;99.90
13488;DHT22;6816;48.506;9.050;2023-05-10T00:30:04;16.50;99.90
13488;DHT22;6816;48.506;9.050;2023-05-10T00:33:05;16.40;99.90
13488;DHT22;6816;48.506;9.050;2023-05-10T00:36:06;16.40;99.90
13488;DHT22;6816;48.506;9.050;2023-05-10T00:39:07;16.40;99.90
13488;DHT22;6816;48.506;9.050;2023-05-10T00:42:08;16.40;99.90
13488;DHT22;6816;48.506;9.050;2023-05-10T00:45:09;16.30;99.90
13488;DHT22;6816;48.506;9.050;2023-05-10T00:48:09;16.30;99.90
13488;DHT22;6816;48.506;9.050;2023-05-10T00:51:10;16.30;99.90
13488;DHT22;6816;48.506;9.050;2023-05-10T00:54:12;16.30;99.90
13488;DHT22;6816;48.506;9.050;2023-05-10T00:57:14;16.20;99.90
13488;DHT22;6816;48.506;9.050;2023-05-10T01:00:15;16.20;99.90
13488;DHT22;6816;48.506;9.050;2023-05-10T01:03:19;16.20;99.90
13488;DHT22;6816;48.506;9.050;2023-05-10T01:06:20;16.20;99.90
13488;DHT22;6816;48.506;9.050;2023-05-10T01:09:21;16.20;99.90
13488;DHT22;6816;48.506;9.050;2023-05-10T01:31:30;16.00;99.90
13488;DHT22;6816;48.506;9.050;2023-05-10T01:42:08;15.90;99.90
13488;DHT22;6816;48.506;9.050;2023-05-10T01:48:18;16.00;99.90
13488;DHT22;6816;48.506;9.050;2023-05-10T01:51:23;15.80;99.90
13488;DHT22;6816;48.506;9.050;2023-05-10T01:54:27;16.00;99.90
13488;DHT22;6816;48.506;9.050;2023-05-10T01:57:34;15.90;99.90
13488;DHT22;6816;48.506;9.050;2023-05-10T02:00:36;16.00;99.90
13488;DHT22;6816;48.506;9.050;2023-05-10T02:04:08;15.90;99.90
13488;DHT22;6816;48.506;9.050;2023-05-10T02:07:36;16.00;99.90
13488;DHT22;6816;48.506;9.050;2023-05-10T02:11:03;16.00;99.90
13488;DHT22;6816;48.506;9.050;2023-05-10T02:14:13;15.90;99.90
13488;DHT22;6816;48.506;9.050;2023-05-10T02:17:14;15.90;99.90
13488;DHT22;6816;48.506;9.050;2023-05-10T02:20:19;15.90;99.90
13488;DHT22;6816;48.506;9.050;2023-05-10T02:23:22;15.90;99.90
13488;DHT22;6816;48.506;9.050;2023-05-10T02:26:24;15.80;99.90
13488;DHT22;6816;48.506;9.050;2023-05-10T02:29:28;15.80;99.90
13488;DHT22;6816;48.506;9.050;2023-05-10T02:32:29;15.80;99.90
13488;DHT22;6816;48.506;9.050;2023-05-10T02:35:31;15.80;99.90
13488;DHT22;6816;48.506;9.050;2023-05-10T02:38:34;15.80;99.90
13488;DHT22;6816;48.506;9.050;2023-05-10T02:41:37;15.60;99.90
13488;DHT22;6816;48.506;9.050;2023-05-10T02:44:40;15.70;99.90
13488;DHT22;6816;48.506;9.050;2023-05-10T02:47:43;15.80;99.90
13488;DHT22;6816;48.506;9.050;2023-05-10T02:50:45;15.70;99.90
13488;DHT22;6816;48.506;9.050;2023-05-10T02:53:48;15.70;99.90
13488;DHT22;6816;48.506;9.050;2023-05-10T02:57:03;15.70;99.90
13488;DHT22;6816;48.506;9.050;2023-05-10T03:00:05;15.60;99.90
13488;DHT22;6816;48.506;9.050;2023-05-10T03:03:06;15.60;99.90
13488;DHT22;6816;48.506;9.050;2023-05-10T03:06:07;15.60;99.90
13488;DHT22;6816;48.506;9.050;2023-05-10T03:09:08;15.60;99.90
13488;DHT22;6816;48.506;9.050;2023-05-10T03:18:42;15.50;99.90
13488;DHT22;6816;48.506;9.050;2023-05-10T03:21:49;15.40;99.90
13488;DHT22;6816;48.506;9.050;2023-05-10T03:24:55;15.50;99.90
13488;DHT22;6816;48.506;9.050;2023-05-10T03:27:59;15.40;99.90
13488;DHT22;6816;48.506;9.050;2023-05-10T03:31:23;15.50;99.90
13488;DHT22;6816;48.506;9.050;2023-05-10T03:34:24;15.40;99.90
13488;DHT22;6816;48.506;9.050;2023-05-10T03:37:26;15.40;99.90
13488;DHT22;6816;48.506;9.050;2023-05-10T03:40:56;15.40;99.90
13488;DHT22;6816;48.506;9.050;2023-05-10T03:43:57;15.50;99.90
13488;DHT22;6816;48.506;9.050;2023-05-10T03:46:59;15.40;99.90
13488;DHT22;6816;48.506;9.050;2023-05-10T03:53:36;15.40;99.90
13488;DHT22;6816;48.506;9.050;2023-05-10T03:57:07;15.40;99.90
13488;DHT22;6816;48.506;9.050;2023-05-10T04:00:11;15.40;99.90
13488;DHT22;6816;48.506;9.050;2023-05-10T04:06:21;15.30;99.90
13488;DHT22;6816;48.506;9.050;2023-05-10T04:09:23;15.40;99.90
13488;DHT22;6816;48.506;9.050;2023-05-10T04:12:24;15.30;99.90
13488;DHT22;6816;48.506;9.050;2023-05-10T04:15:25;15.40;99.90
13488;DHT22;6816;48.506;9.050;2023-05-10T04:18:27;15.30;99.90
13488;DHT22;6816;48.506;9.050;2023-05-10T04:24:34;15.40;99.90
13488;DHT22;6816;48.506;9.050;2023-05-10T04:27:35;15.40;99.90
13488;DHT22;6816;48.506;9.050;2023-05-10T04:30:36;15.40;99.90
13488;DHT22;6816;48.506;9.050;2023-05-10T04:33:37;15.40;99.90
13488;DHT22;6816;48.506;9.050;2023-05-10T04:36:37;15.40;99.90
13488;DHT22;6816;48.506;9.050;2023-05-10T04:39:38;15.40;99.90
13488;DHT22;6816;48.506;9.050;2023-05-10T04:42:40;15.40;99.90
13488;DHT22;6816;48.506;9.050;2023-05-10T04:45:41;15.40;99.90
13488;DHT22;6816;48.506;9.050;2023-05-10T04:48:42;15.40;99.90
13488;DHT22;6816;48.506;9.050;2023-05-10T04:51:43;15.50;99.90
13488;DHT22;6816;48.506;9.050;2023-05-10T04:54:43;15.40;99.90
13488;DHT22;6816;48.506;9.050;2023-05-10T04:57:44;15.50;99.90
13488;DHT22;6816;48.506;9.050;2023-05-10T05:00:45;15.50;99.90
13488;DHT22;6816;48.506;9.050;2023-05-10T05:03:46;15.50;99.90
13488;DHT22;6816;48.506;9.050;2023-05-10T05:06:46;15.50;99.90
13488;DHT22;6816;48.506;9.050;2023-05-10T05:09:47;15.50;99.90
13488;DHT22;6816;48.506;9.050;2023-05-10T05:13:17;15.60;99.90
13488;DHT22;6816;48.506;9.050;2023-05-10T05:16:52;15.60;99.90
13488;DHT22;6816;48.506;9.050;2023-05-10T05:19:53;15.60;99.90
13488;DHT22;6816;48.506;9.050;2023-05-10T05:22:54;15.60;99.90
13488;DHT22;6816;48.506;9.050;2023-05-10T05:25:55;15.60;99.90
13488;DHT22;6816;48.506;9.050;2023-05-10T05:28:55;15.70;99.90
13488;DHT22;6816;48.506;9.050;2023-05-10T05:31:56;15.60;99.90
13488;DHT22;6816;48.506;9.050;2023-05-10T05:34:57;15.70;99.90
13488;DHT22;6816;48.506;9.050;2023-05-10T05:37:57;15.70;99.90
13488;DHT22;6816;48.506;9.050;2023-05-10T05:40:58;15.70;99.90
13488;DHT22;6816;48.506;9.050;2023-05-10T05:44:02;15.70;99.90
13488;DHT22;6816;48.506;9.050;2023-05-10T05:47:05;15.70;99.90
13488;DHT22;6816;48.506;9.050;2023-05-10T05:50:07;15.70;99.90
13488;DHT22;6816;48.506;9.050;2023-05-10T05:53:08;15.70;99.90
13488;DHT22;6816;48.506;9.050;2023-05-10T05:56:09;15.70;99.90
13488;DHT22;6816;48.506;9.050;2023-05-10T05:59:11;15.70;99.90
13488;DHT22;6816;48.506;9.050;2023-05-10T06:02:11;15.70;99.90
13488;DHT22;6816;48.506;9.050;2023-05-10T06:05:12;15.70;99.90
13488;DHT22;6816;48.506;9.050;2023-05-10T06:08:14;15.80;99.90
13488;DHT22;6816;48.506;9.050;2023-05-10T06:11:15;15.80;99.90
13488;DHT22;6816;48.506;9.050;2023-05-10T06:14:15;15.80;99.90
13488;DHT22;6816;48.506;9.050;2023-05-10T06:17:16;15.90;99.90
13488;DHT22;6816;48.506;9.050;2023-05-10T06:20:16;15.90;99.90
13488;DHT22;6816;48.506;9.050;2023-05-10T06:23:17;16.00;99.90
13488;DHT22;6816;48.506;9.050;2023-05-10T06:26:18;16.00;99.90
13488;DHT22;6816;48.506;9.050;2023-05-10T06:29:19;16.10;99.90
13488;DHT22;6816;48.506;9.050;2023-05-10T06:32:19;16.10;99.90
13488;DHT22;6816;48.506;9.050;2023-05-10T06:35:20;16.20;99.90
13488;DHT22;6816;48.506;9.050;2023-05-10T06:38:21;16.30;99.90
13488;DHT22;6816;48.506;9.050;2023-05-10T06:41:22;16.30;99.90
13488;DHT22;6816;48.506;9.050;2023-05-10T06:44:24;16.30;99.90
13488;DHT22;6816;48.506;9.050;2023-05-10T06:47:25;16.40;99.90
13488;DHT22;6816;48.506;9.050;2023-05-10T06:50:25;16.40;99.90
13488;DHT22;6816;48.506;9.050;2023-05-10T06:53:26;16.50;99.90
13488;DHT22;6816;48.506;9.050;2023-05-10T06:56:27;16.50;99.90
13488;DHT22;6816;48.506;9.050;2023-05-10T06:59:27;16.60;99.90
13488;DHT22;6816;48.506;9.050;2023-05-10T07:02:28;16.60;99.90
13488;DHT22;6816;48.506;9.050;2023-05-10T07:05:28;16.60;99.90
13488;DHT22;6816;48.506;9.050;2023-05-10T07:08:35;16.60;99.90
13488;DHT22;6816;48.506;9.050;2023-05-10T07:11:36;16.60;99.90
13488;DHT22;6816;48.506;9.050;2023-05-10T07:14:37;16.60;99.90
13488;DHT22;6816;48.506;9.050;2023-05-10T07:17:38;16.60;99.90
13488;DHT22;6816;48.506;9.050;2023-05-10T07:20:39;16.60;99.90
13488;DHT22;6816;48.506;9.050;2023-05-10T07:23:39;16.60;99.90
13488;DHT22;6816;48.506;9.050;2023-05-10T07:26:40;16.60;99.90
13488;DHT22;6816;48.506;9.050;2023-05-10T07:29:40;16.60;99.90
13488;DHT22;6816;48.506;9.050;2023-05-10T07:32:41;16.70;99.90
13488;DHT22;6816;48.506;9.050;2023-05-10T07:35:42;16.70;99.90
13488;DHT22;6816;48.506;9.050;2023-05-10T07:38:43;16.70;99.90
13488;DHT22;6816;48.506;9.050;2023-05-10T07:41:44;16.70;99.90
13488;DHT22;6816;48.506;9.050;2023-05-10T07:44:44;16.70;99.90
13488;DHT22;6816;48.506;9.050;2023-05-10T07:47:45;16.70;99.90
13488;DHT22;6816;48.506;9.050;2023-05-10T07:50:46;16.80;99.90
13488;DHT22;6816;48.506;9.050;2023-05-10T07:53:47;16.80;99.90
13488;DHT22;6816;48.506;9.050;2023-05-10T07:56:47;16.90;99.90
13488;DHT22;6816;48.506;9.050;2023-05-10T07:59:48;16.80;99.90
13488;DHT22;6816;48.506;9.050;2023-05-10T08:02:49;16.90;99.90
13488;DHT22;6816;48.506;9.050;2023-05-10T08:05:49;16.90;99.90
13488;DHT22;6816;48.506;9.050;2023-05-10T08:08:50;17.00;99.90
13488;DHT22;6816;48.506;9.050;2023-05-10T08:11:51;17.10;99.90
13488;DHT22;6816;48.506;9.050;2023-05-10T08:14:52;17.10;99.90
13488;DHT22;6816;48.506;9.050;2023-05-10T08:17:53;17.20;99.90
13488;DHT22;6816;48.506;9.050;2023-05-10T08:20:53;17.20;99.90
13488;DHT22;6816;48.506;9.050;2023-05-10T08:23:54;17.30;99.90
13488;DHT22;6816;48.506;9.050;2023-05-10T08:26:55;17.40;99.90
13488;DHT22;6816;48.506;9.050;2023-05-10T08:29:55;17.50;99.90
13488;DHT22;6816;48.506;9.050;2023-05-10T08:32:56;17.50;99.90
13488;DHT22;6816;48.506;9.050;2023-05-10T08:35:57;17.60;99.90
13488;DHT22;6816;48.506;9.050;2023-05-10T08:38:58;17.60;99.90
13488;DHT22;6816;48.506;9.050;2023-05-10T08:42:01;17.70;99.90
13488;DHT22;6816;48.506;9.050;2023-05-10T08:45:02;17.80;99.90
13488;DHT22;6816;48.506;9.050;2023-05-10T08:48:06;17.90;99.90
13488;DHT22;6816;48.506;9.050;2023-05-10T08:51:07;18.00;99.90
13488;DHT22;6816;48.506;9.050;2023-05-10T08:54:09;18.00;99.90
13488;DHT22;6816;48.506;9.050;2023-05-10T08:57:10;18.00;99.90
13488;DHT22;6816;48.506;9.050;2023-05-10T09:00:12;18.00;99.90
13488;DHT22;6816;48.506;9.050;2023-05-10T09:03:13;18.10;99.90
13488;DHT22;6816;48.506;9.050;2023-05-10T09:06:14;18.10;99.90
13488;DHT22;6816;48.506;9.050;2023-05-10T09:09:17;18.10;99.90
13488;DHT22;6816;48.506;9.050;2023-05-10T09:12:17;18.10;99.90
13488;DHT22;6816;48.506;9.050;2023-05-10T09:15:18;18.00;99.90
13488;DHT22;6816;48.506;9.050;2023-05-10T09:18:20;18.10;99.90
13488;DHT22;6816;48.506;9.050;2023-05-10T09:21:21;18.10;99.90
13488;DHT22;6816;48.506;9.050;2023-05-10T09:24:25;18.10;99.90
13488;DHT22;6816;48.506;9.050;2023-05-10T09:27:27;18.10;99.90
13488;DHT22;6816;48.506;9.050;2023-05-10T09:30:31;18.20;99.90
13488;DHT22;6816;48.506;9.050;2023-05-10T09:33:44;18.30;99.90
13488;DHT22;6816;48.506;9.050;2023-05-10T09:36:52;18.30;99.90
13488;DHT22;6816;48.506;9.050;2023-05-10T09:39:54;18.50;99.90
13488;DHT22;6816;48.506;9.050;2023-05-10T09:42:56;18.60;99.90
13488;DHT22;6816;48.506;9.050;2023-05-10T09:45:57;18.70;99.90
13488;DHT22;6816;48.506;9.050;2023-05-10T09:48:58;18.70;99.90
13488;DHT22;6816;48.506;9.050;2023-05-10T09:52:04;18.80;99.90
13488;DHT22;6816;48.506;9.050;2023-05-10T09:55:05;18.80;99.90
13488;DHT22;6816;48.506;9.050;2023-05-10T09:58:06;18.80;99.90
13488;DHT22;6816;48.506;9.050;2023-05-10T10:01:11;18.80;99.90
13488;DHT22;6816;48.506;9.050;2023-05-10T10:04:13;18.80;99.90
13488;DHT22;6816;48.506;9.050;2023-05-10T10:07:25;18.70;99.90
13488;DHT22;6816;48.506;9.050;2023-05-10T10:10:27;18.60;99.90
13488;DHT22;6816;48.506;9.050;2023-05-10T10:13:28;18.50;99.90
13488;DHT22;6816;48.506;9.050;2023-05-10T10:16:30;18.40;99.90
13488;DHT22;6816;48.506;9.050;2023-05-10T10:19:33;18.30;99.90
13488;DHT22;6816;48.506;9.050;2023-05-10T10:22:36;18.30;99.90
13488;DHT22;6816;48.506;9.050;2023-05-10T10:25:38;18.30;99.90
13488;DHT22;6816;48.506;9.050;2023-05-10T10:36:02;18.40;99.90
13488;DHT22;6816;48.506;9.050;2023-05-10T10:39:09;18.40;99.90
13488;DHT22;6816;48.506;9.050;2023-05-10T10:42:10;18.50;99.90
13488;DHT22;6816;48.506;9.050;2023-05-10T10:45:14;18.60;99.90
13488;DHT22;6816;48.506;9.050;2023-05-10T10:48:22;18.70;99.90
13488;DHT22;6816;48.506;9.050;2023-05-10T10:51:23;18.80;99.90
13488;DHT22;6816;48.506;9.050;2023-05-10T10:54:28;19.00;99.90
13488;DHT22;6816;48.506;9.050;2023-05-10T10:57:31;19.10;99.90
13488;DHT22;6816;48.506;9.050;2023-05-10T11:00:36;19.20;99.90
13488;DHT22;6816;48.506;9.050;2023-05-10T11:03:37;19.20;99.90
13488;DHT22;6816;48.506;9.050;2023-05-10T11:06:38;19.20;99.90
13488;DHT22;6816;48.506;9.050;2023-05-10T11:09:40;19.10;99.90
13488;DHT22;6816;48.506;9.050;2023-05-10T11:12:51;18.80;99.90
13488;DHT22;6816;48.506;9.050;2023-05-10T11:15:53;18.60;99.90
13488;DHT22;6816;48.506;9.050;2023-05-10T11:19:12;18.50;99.90
13488;DHT22;6816;48.506;9.050;2023-05-10T11:22:13;18.30;99.90
13488;DHT22;6816;48.506;9.050;2023-05-10T11:25:14;18.10;99.90
13488;DHT22;6816;48.506;9.050;2023-05-10T11:28:17;18.00;99.90
13488;DHT22;6816;48.506;9.050;2023-05-10T11:31:19;17.80;99.90
13488;DHT22;6816;48.506;9.050;2023-05-10T11:34:30;17.70;99.90
13488;DHT22;6816;48.506;9.050;2023-05-10T11:37:33;17.50;99.90
13488;DHT22;6816;48.506;9.050;2023-05-10T11:40:35;17.40;99.90
13488;DHT22;6816;48.506;9.050;2023-05-10T11:43:36;17.20;99.90
13488;DHT22;6816;48.506;9.050;2023-05-10T11:46:38;17.10;99.90
13488;DHT22;6816;48.506;9.050;2023-05-10T11:49:39;16.90;99.90
13488;DHT22;6816;48.506;9.050;2023-05-10T11:52:43;16.90;99.90
13488;DHT22;6816;48.506;9.050;2023-05-10T11:55:44;16.70;99.90
13488;DHT22;6816;48.506;9.050;2023-05-10T11:58:45;16.70;99.90
13488;DHT22;6816;48.506;9.050;2023-05-10T12:01:47;16.70;99.90
13488;DHT22;6816;48.506;9.050;2023-05-10T12:04:49;16.80;99.90
13488;DHT22;6816;48.506;9.050;2023-05-10T12:07:49;17.00;99.90
13488;DHT22;6816;48.506;9.050;2023-05-10T12:10:51;17.10;99.90
13488;DHT22;6816;48.506;9.050;2023-05-10T12:13:51;17.30;99.90
13488;DHT22;6816;48.506;9.050;2023-05-10T12:16:53;17.40;99.90
13488;DHT22;6816;48.506;9.050;2023-05-10T12:19:54;17.50;99.90
13488;DHT22;6816;48.506;9.050;2023-05-10T12:22:57;17.60;99.90
13488;DHT22;6816;48.506;9.050;2023-05-10T12:26:05;17.70;99.90
13488;DHT22;6816;48.506;9.050;2023-05-10T12:29:17;17.80;99.90
13488;DHT22;6816;48.506;9.050;2023-05-10T12:32:18;17.90;99.90
13488;DHT22;6816;48.506;9.050;2023-05-10T12:35:19;17.80;99.90
13488;DHT22;6816;48.506;9.050;2023-05-10T12:38:27;17.90;99.90
13488;DHT22;6816;48.506;9.050;2023-05-10T12:41:29;17.90;99.90
13488;DHT22;6816;48.506;9.050;2023-05-10T12:44:30;17.90;99.90
13488;DHT22;6816;48.506;9.050;2023-05-10T12:47:31;17.90;99.90
13488;DHT22;6816;48.506;9.050;2023-05-10T12:50:32;17.90;99.90
13488;DHT22;6816;48.506;9.050;2023-05-10T12:53:33;18.00;99.90
13488;DHT22;6816;48.506;9.050;2023-05-10T12:56:34;18.00;99.90
13488;DHT22;6816;48.506;9.050;2023-05-10T12:59:34;18.10;99.90
13488;DHT22;6816;48.506;9.050;2023-05-10T13:02:35;18.10;99.90
13488;DHT22;6816;48.506;9.050;2023-05-10T13:05:36;18.20;99.90
13488;DHT22;6816;48.506;9.050;2023-05-10T13:08:36;18.20;99.90
13488;DHT22;6816;48.506;9.050;2023-05-10T13:11:37;18.30;99.90
13488;DHT22;6816;48.506;9.050;2023-05-10T13:14:38;18.40;99.90
13488;DHT22;6816;48.506;9.050;2023-05-10T13:17:40;18.40;99.90
13488;DHT22;6816;48.506;9.050;2023-05-10T13:20:42;18.50;99.90
13488;DHT22;6816;48.506;9.050;2023-05-10T13:23:44;18.60;99.90
13488;DHT22;6816;48.506;9.050;2023-05-10T13:26:45;18.60;99.90
13488;DHT22;6816;48.506;9.050;2023-05-10T13:29:45;18.70;99.90
13488;DHT22;6816;48.506;9.050;2023-05-10T13:32:46;18.70;99.90
13488;DHT22;6816;48.506;9.050;2023-05-10T13:35:47;18.80;99.90
13488;DHT22;6816;48.506;9.050;2023-05-10T13:38:47;18.80;99.90
13488;DHT22;6816;48.506;9.050;2023-05-10T13:41:48;18.90;99.90
13488;DHT22;6816;48.506;9.050;2023-05-10T13:44:49;19.00;99.90
13488;DHT22;6816;48.506;9.050;2023-05-10T13:47:50;19.00;99.90
13488;DHT22;6816;48.506;9.050;2023-05-10T13:50:52;19.10;99.90
13488;DHT22;6816;48.506;9.050;2023-05-10T13:53:52;19.10;99.90
13488;DHT22;6816;48.506;9.050;2023-05-10T13:56:53;19.10;99.90
13488;DHT22;6816;48.506;9.050;2023-05-10T13:59:54;19.10;99.90
13488;DHT22;6816;48.506;9.050;2023-05-10T14:02:55;19.10;99.90
13488;DHT22;6816;48.506;9.050;2023-05-10T14:05:55;19.10;99.90
13488;DHT22;6816;48.506;9.050;2023-05-10T14:08:56;19.10;99.90
13488;DHT22;6816;48.506;9.050;2023-05-10T14:11:57;19.10;99.90
13488;DHT22;6816;48.506;9.050;2023-05-10T14:14:58;19.10;99.90
13488;DHT22;6816;48.506;9.050;2023-05-10T14:17:58;19.10;99.90
13488;DHT22;6816;48.506;9.050;2023-05-10T14:20:59;19.10;99.90
13488;DHT22;6816;48.506;9.050;2023-05-10T14:24:00;19.10;99.90
13488;DHT22;6816;48.506;9.050;2023-05-10T14:27:01;19.10;99.90
13488;DHT22;6816;48.506;9.050;2023-05-10T14:30:01;19.20;99.90
13488;DHT22;6816;48.506;9.050;2023-05-10T14:33:02;19.10;99.90
13488;DHT22;6816;48.506;9.050;2023-05-10T14:36:03;19.10;99.90
13488;DHT22;6816;48.506;9.050;2023-05-10T14:39:04;19.10;99.90
13488;DHT22;6816;48.506;9.050;2023-05-10T14:42:05;19.00;99.90
13488;DHT22;6816;48.506;9.050;2023-05-10T14:45:06;19.00;99.90
13488;DHT22;6816;48.506;9.050;2023-05-10T14:48:06;19.00;99.90
13488;DHT22;6816;48.506;9.050;2023-05-10T14:51:11;19.00;99.90
13488;DHT22;6816;48.506;9.050;2023-05-10T14:54:12;19.00;99.90
13488;DHT22;6816;48.506;9.050;2023-05-10T14:57:12;19.00;99.90
13488;DHT22;6816;48.506;9.050;2023-05-10T15:00:14;19.10;99.90
13488;DHT22;6816;48.506;9.050;2023-05-10T15:03:16;19.00;99.90
13488;DHT22;6816;48.506;9.050;2023-05-10T15:06:16;19.00;99.90
13488;DHT22;6816;48.506;9.050;2023-05-10T15:09:17;19.00;99.90
13488;DHT22;6816;48.506;9.050;2023-05-10T15:12:18;19.00;99.90
13488;DHT22;6816;48.506;9.050;2023-05-10T15:15:19;19.00;99.90
13488;DHT22;6816;48.506;9.050;2023-05-10T15:18:20;19.00;99.90
13488;DHT22;6816;48.506;9.050;2023-05-10T15:21:20;19.00;99.90
13488;DHT22;6816;48.506;9.050;2023-05-10T15:24:21;19.00;99.90
13488;DHT22;6816;48.506;9.050;2023-05-10T15:27:22;19.00;99.90
13488;DHT22;6816;48.506;9.050;2023-05-10T15:30:23;19.00;99.90
13488;DHT22;6816;48.506;9.050;2023-05-10T15:33:23;18.90;99.90
13488;DHT22;6816;48.506;9.050;2023-05-10T15:36:25;18.90;99.90
13488;DHT22;6816;48.506;9.050;2023-05-10T15:39:25;18.80;99.90
13488;DHT22;6816;48.506;9.050;2023-05-10T15:42:26;18.80;99.90
13488;DHT22;6816;48.506;9.050;2023-05-10T15:45:26;18.80;99.90
13488;DHT22;6816;48.506;9.050;2023-05-10T15:48:27;18.80;99.90
13488;DHT22;6816;48.506;9.050;2023-05-10T15:51:28;18.70;99.90
13488;DHT22;6816;48.506;9.050;2023-05-10T15:54:28;18.70;99.90
13488;DHT22;6816;48.506;9.050;2023-05-10T15:57:29;18.60;99.90
13488;DHT22;6816;48.506;9.050;2023-05-10T16:00:30;18.60;99.90
13488;DHT22;6816;48.506;9.050;2023-05-10T16:03:30;18.50;99.90
13488;DHT22;6816;48.506;9.050;2023-05-10T16:06:31;18.50;99.90
13488;DHT22;6816;48.506;9.050;2023-05-10T16:09:33;18.50;99.90
13488;DHT22;6816;48.506;9.050;2023-05-10T16:12:34;18.40;99.90
13488;DHT22;6816;48.506;9.050;2023-05-10T16:15:35;18.30;99.90
13488;DHT22;6816;48.506;9.050;2023-05-10T16:18:36;18.30;99.90
13488;DHT22;6816;48.506;9.050;2023-05-10T16:21:37;18.20;99.90
13488;DHT22;6816;48.506;9.050;2023-05-10T16:24:37;18.20;99.90
13488;DHT22;6816;48.506;9.050;2023-05-10T16:27:38;18.10;99.90
13488;DHT22;6816;48.506;9.050;2023-05-10T16:30:39;18.10;99.90
13488;DHT22;6816;48.506;9.050;2023-05-10T16:33:39;18.00;99.90
13488;DHT22;6816;48.506;9.050;2023-05-10T16:36:40;18.00;99.90
13488;DHT22;6816;48.506;9.050;2023-05-10T16:39:41;17.90;99.90
13488;DHT22;6816;48.506;9.050;2023-05-10T16:42:42;17.90;99.90
13488;DHT22;6816;48.506;9.050;2023-05-10T16:45:42;17.90;99.90
13488;DHT22;6816;48.506;9.050;2023-05-10T16:48:43;17.80;99.90
13488;DHT22;6816;48.506;9.050;2023-05-10T16:51:43;17.80;99.90
13488;DHT22;6816;48.506;9.050;2023-05-10T16:54:44;17.70;99.90
13488;DHT22;6816;48.506;9.050;2023-05-10T16:57:45;17.70;99.90
13488;DHT22;6816;48.506;9.050;2023-05-10T17:00:45;17.60;99.90
13488;DHT22;6816;48.506;9.050;2023-05-10T17:03:46;17.60;99.90
13488;DHT22;6816;48.506;9.050;2023-05-10T17:06:46;17.50;99.90
13488;DHT22;6816;48.506;9.050;2023-05-10T17:09:47;17.40;99.90
13488;DHT22;6816;48.506;9.050;2023-05-10T17:12:48;17.30;99.90
13488;DHT22;6816;48.506;9.050;2023-05-10T17:15:48;17.30;99.90
13488;DHT22;6816;48.506;9.050;2023-05-10T17:18:49;17.20;99.90
13488;DHT22;6816;48.506;9.050;2023-05-10T17:21:50;17.10;99.90
13488;DHT22;6816;48.506;9.050;2023-05-10T17:24:50;17.00;99.90
13488;DHT22;6816;48.506;9.050;2023-05-10T17:27:51;16.90;99.90
13488;DHT22;6816;48.506;9.050;2023-05-10T17:30:56;16.90;99.90
13488;DHT22;6816;48.506;9.050;2023-05-10T17:33:57;16.80;99.90
13488;DHT22;6816;48.506;9.050;2023-05-10T17:36:58;16.80;99.90
13488;DHT22;6816;48.506;9.050;2023-05-10T17:39:59;16.70;99.90
13488;DHT22;6816;48.506;9.050;2023-05-10T17:43:00;16.70;99.90
13488;DHT22;6816;48.506;9.050;2023-05-10T17:46:01;16.60;99.90
13488;DHT22;6816;48.506;9.050;2023-05-10T17:49:01;16.60;99.90
13488;DHT22;6816;48.506;9.050;2023-05-10T17:52:02;16.50;99.90
13488;DHT22;6816;48.506;9.050;2023-05-10T17:55:03;16.50;99.90
13488;DHT22;6816;48.506;9.050;2023-05-10T17:58:03;16.50;99.90
13488;DHT22;6816;48.506;9.050;2023-05-10T18:01:04;16.40;99.90
13488;DHT22;6816;48.506;9.050;2023-05-10T18:04:05;16.40;99.90
13488;DHT22;6816;48.506;9.050;2023-05-10T18:07:06;16.40;99.90
13488;DHT22;6816;48.506;9.050;2023-05-10T18:10:07;16.30;99.90
13488;DHT22;6816;48.506;9.050;2023-05-10T18:13:08;16.30;99.90
13488;DHT22;6816;48.506;9.050;2023-05-10T18:16:08;16.20;99.90
13488;DHT22;6816;48.506;9.050;2023-05-10T18:19:11;16.20;99.90
13488;DHT22;6816;48.506;9.050;2023-05-10T18:22:12;16.20;99.90
13488;DHT22;6816;48.506;9.050;2023-05-10T18:25:13;16.10;99.90
13488;DHT22;6816;48.506;9.050;2023-05-10T18:28:13;16.10;99.90
13488;DHT22;6816;48.506;9.050;2023-05-10T18:31:14;16.00;99.90
13488;DHT22;6816;48.506;9.050;2023-05-10T18:34:15;16.00;99.90
13488;DHT22;6816;48.506;9.050;2023-05-10T18:37:16;16.00;99.90
13488;DHT22;6816;48.506;9.050;2023-05-10T18:40:17;15.90;99.90
13488;DHT22;6816;48.506;9.050;2023-05-10T18:43:18;15.90;99.90
13488;DHT22;6816;48.506;9.050;2023-05-10T18:46:19;15.90;99.90
13488;DHT22;6816;48.506;9.050;2023-05-10T18:49:20;15.80;99.90
13488;DHT22;6816;48.506;9.050;2023-05-10T18:52:20;15.80;99.90
13488;DHT22;6816;48.506;9.050;2023-05-10T18:55:23;15.70;99.90
13488;DHT22;6816;48.506;9.050;2023-05-10T18:58:28;15.70;99.90
13488;DHT22;6816;48.506;9.050;2023-05-10T19:01:29;15.70;99.90
13488;DHT22;6816;48.506;9.050;2023-05-10T19:04:30;15.60;99.90
13488;DHT22;6816;48.506;9.050;2023-05-10T19:07:30;15.60;99.90
13488;DHT22;6816;48.506;9.050;2023-05-10T19:10:31;15.50;99.90
13488;DHT22;6816;48.506;9.050;2023-05-10T19:13:32;15.40;99.90
13488;DHT22;6816;48.506;9.050;2023-05-10T19:16:33;15.40;99.90
13488;DHT22;6816;48.506;9.050;2023-05-10T19:19:34;15.30;99.90
13488;DHT22;6816;48.506;9.050;2023-05-10T19:22:35;15.30;99.90
13488;DHT22;6816;48.506;9.050;2023-05-10T19:25:35;15.20;99.90
13488;DHT22;6816;48.506;9.050;2023-05-10T19:28:36;15.20;99.90
13488;DHT22;6816;48.506;9.050;2023-05-10T19:31:37;15.20;99.90
13488;DHT22;6816;48.506;9.050;2023-05-10T19:34:37;15.10;99.90
13488;DHT22;6816;48.506;9.050;2023-05-10T19:37:38;15.10;99.90
13488;DHT22;6816;48.506;9.050;2023-05-10T19:40:39;15.10;99.90
13488;DHT22;6816;48.506;9.050;2023-05-10T19:43:40;15.00;99.90
13488;DHT22;6816;48.506;9.050;2023-05-10T19:46:41;15.10;99.90
13488;DHT22;6816;48.506;9.050;2023-05-10T19:49:41;15.00;99.90
13488;DHT22;6816;48.506;9.050;2023-05-10T19:52:42;15.00;99.90
13488;DHT22;6816;48.506;9.050;2023-05-10T19:55:44;15.00;99.90
13488;DHT22;6816;48.506;9.050;2023-05-10T19:58:44;15.00;99.90
13488;DHT22;6816;48.506;9.050;2023-05-10T20:01:45;15.00;99.90
13488;DHT22;6816;48.506;9.050;2023-05-10T20:04:46;15.00;99.90
13488;DHT22;6816;48.506;9.050;2023-05-10T20:07:48;14.90;99.90
13488;DHT22;6816;48.506;9.050;2023-05-10T20:10:49;14.90;99.90
13488;DHT22;6816;48.506;9.050;2023-05-10T20:13:50;14.90;99.90
13488;DHT22;6816;48.506;9.050;2023-05-10T20:16:50;14.90;99.90
13488;DHT22;6816;48.506;9.050;2023-05-10T20:19:51;14.80;99.90
13488;DHT22;6816;48.506;9.050;2023-05-10T20:22:51;14.80;99.90